sensor_id;sensor_type;location;lat;lon;timestamp;P1;durP1;ratioP1;P2;durP2;ratioP2
72132;SDS011;60008;50.826;6.896;2023-07-29T00:02:49;8.07;;;1.38;;
72132;SDS011;60008;50.826;6.896;2023-07-29T00:05:34;2.30;;;1.10;;
72132;SDS011;60008;50.826;6.896;2023-07-29T00:08:26;2.67;;;1.00;;
72132;SDS011;60008;50.826;6.896;2023-07-29T00:11:18;2.10;;;1.35;;
72132;SDS011;60008;50.826;6.896;2023-07-29T00:14:10;2.55;;;1.20;;
72132;SDS011;60008;50.826;6.896;2023-07-29T00:16:55;3.03;;;1.40;;
72132;SDS011;60008;50.826;6.896;2023-07-29T00:19:46;3.17;;;1.10;;
72132;SDS011;60008;50.826;6.896;2023-07-29T00:22:31;2.78;;;1.10;;
72132;SDS011;60008;50.826;6.896;2023-07-29T00:25:23;4.28;;;1.40;;
72132;SDS011;60008;50.826;6.896;2023-07-29T00:28:15;3.50;;;1.15;;
72132;SDS011;60008;50.826;6.896;2023-07-29T00:31:01;1.95;;;0.95;;
72132;SDS011;60008;50.826;6.896;2023-07-29T00:33:53;3.03;;;1.10;;
72132;SDS011;60008;50.826;6.896;2023-07-29T00:36:38;2.72;;;1.10;;
72132;SDS011;60008;50.826;6.896;2023-07-29T00:39:30;2.35;;;1.30;;
72132;SDS011;60008;50.826;6.896;2023-07-29T00:42:15;2.47;;;1.10;;
72132;SDS011;60008;50.826;6.896;2023-07-29T00:45:07;5.80;;;1.30;;
72132;SDS011;60008;50.826;6.896;2023-07-29T00:48:00;3.47;;;1.27;;
72132;SDS011;60008;50.826;6.896;2023-07-29T00:50:47;4.57;;;1.20;;
72132;SDS011;60008;50.826;6.896;2023-07-29T00:53:39;2.22;;;1.13;;
72132;SDS011;60008;50.826;6.896;2023-07-29T00:56:31;2.83;;;1.40;;
72132;SDS011;60008;50.826;6.896;2023-07-29T00:59:16;2.25;;;1.30;;
72132;SDS011;60008;50.826;6.896;2023-07-29T01:02:15;2.37;;;1.20;;
72132;SDS011;60008;50.826;6.896;2023-07-29T01:05:01;2.08;;;1.00;;
72132;SDS011;60008;50.826;6.896;2023-07-29T01:10:52;3.30;;;1.30;;
72132;SDS011;60008;50.826;6.896;2023-07-29T01:13:58;4.32;;;1.30;;
72132;SDS011;60008;50.826;6.896;2023-07-29T01:17:00;3.80;;;1.10;;
72132;SDS011;60008;50.826;6.896;2023-07-29T01:20:01;2.85;;;1.35;;
72132;SDS011;60008;50.826;6.896;2023-07-29T01:22:51;1.92;;;0.90;;
72132;SDS011;60008;50.826;6.896;2023-07-29T01:25:43;1.80;;;1.20;;
72132;SDS011;60008;50.826;6.896;2023-07-29T01:28:35;2.47;;;1.20;;
72132;SDS011;60008;50.826;6.896;2023-07-29T01:31:38;2.57;;;1.23;;
72132;SDS011;60008;50.826;6.896;2023-07-29T01:34:36;3.65;;;1.35;;
72132;SDS011;60008;50.826;6.896;2023-07-29T01:37:28;2.67;;;1.40;;
72132;SDS011;60008;50.826;6.896;2023-07-29T01:40:23;3.60;;;1.35;;
72132;SDS011;60008;50.826;6.896;2023-07-29T01:43:11;2.90;;;1.40;;
72132;SDS011;60008;50.826;6.896;2023-07-29T01:46:03;10.63;;;1.03;;
72132;SDS011;60008;50.826;6.896;2023-07-29T01:48:48;3.75;;;1.27;;
72132;SDS011;60008;50.826;6.896;2023-07-29T01:51:40;4.82;;;1.50;;
72132;SDS011;60008;50.826;6.896;2023-07-29T01:54:25;2.47;;;1.30;;
72132;SDS011;60008;50.826;6.896;2023-07-29T01:57:17;7.03;;;1.50;;
72132;SDS011;60008;50.826;6.896;2023-07-29T02:00:02;11.20;;;2.20;;
72132;SDS011;60008;50.826;6.896;2023-07-29T02:02:55;4.70;;;1.70;;
72132;SDS011;60008;50.826;6.896;2023-07-29T02:05:46;3.80;;;1.15;;
72132;SDS011;60008;50.826;6.896;2023-07-29T02:08:38;4.45;;;1.23;;
72132;SDS011;60008;50.826;6.896;2023-07-29T02:11:32;3.50;;;1.02;;
72132;SDS011;60008;50.826;6.896;2023-07-29T02:14:23;2.57;;;1.10;;
72132;SDS011;60008;50.826;6.896;2023-07-29T02:17:16;3.88;;;1.20;;
72132;SDS011;60008;50.826;6.896;2023-07-29T02:20:02;2.90;;;1.35;;
72132;SDS011;60008;50.826;6.896;2023-07-29T02:22:55;3.58;;;1.23;;
72132;SDS011;60008;50.826;6.896;2023-07-29T02:25:42;4.13;;;1.45;;
72132;SDS011;60008;50.826;6.896;2023-07-29T02:28:34;4.23;;;1.40;;
72132;SDS011;60008;50.826;6.896;2023-07-29T02:31:20;2.50;;;1.20;;
72132;SDS011;60008;50.826;6.896;2023-07-29T02:34:13;2.22;;;1.30;;
72132;SDS011;60008;50.826;6.896;2023-07-29T02:36:58;3.65;;;1.30;;
72132;SDS011;60008;50.826;6.896;2023-07-29T02:39:50;5.45;;;1.45;;
72132;SDS011;60008;50.826;6.896;2023-07-29T02:42:42;2.83;;;1.23;;
72132;SDS011;60008;50.826;6.896;2023-07-29T02:45:28;5.30;;;1.23;;
72132;SDS011;60008;50.826;6.896;2023-07-29T02:48:20;2.72;;;1.30;;
72132;SDS011;60008;50.826;6.896;2023-07-29T02:51:11;3.22;;;1.30;;
72132;SDS011;60008;50.826;6.896;2023-07-29T02:54:03;2.45;;;1.30;;
72132;SDS011;60008;50.826;6.896;2023-07-29T02:56:49;2.40;;;1.30;;
72132;SDS011;60008;50.826;6.896;2023-07-29T02:59:42;3.22;;;1.52;;
72132;SDS011;60008;50.826;6.896;2023-07-29T03:02:28;4.05;;;1.30;;
72132;SDS011;60008;50.826;6.896;2023-07-29T03:05:19;2.97;;;1.50;;
72132;SDS011;60008;50.826;6.896;2023-07-29T03:08:04;1.85;;;1.17;;
72132;SDS011;60008;50.826;6.896;2023-07-29T03:10:58;2.33;;;1.20;;
72132;SDS011;60008;50.826;6.896;2023-07-29T03:13:49;4.85;;;1.50;;
72132;SDS011;60008;50.826;6.896;2023-07-29T03:16:41;3.08;;;1.30;;
72132;SDS011;60008;50.826;6.896;2023-07-29T03:19:28;3.17;;;1.45;;
72132;SDS011;60008;50.826;6.896;2023-07-29T03:22:19;2.20;;;1.40;;
72132;SDS011;60008;50.826;6.896;2023-07-29T03:25:05;2.30;;;1.30;;
72132;SDS011;60008;50.826;6.896;2023-07-29T03:27:57;2.28;;;1.27;;
72132;SDS011;60008;50.826;6.896;2023-07-29T03:30:42;3.45;;;1.30;;
72132;SDS011;60008;50.826;6.896;2023-07-29T03:33:34;2.20;;;1.13;;
72132;SDS011;60008;50.826;6.896;2023-07-29T03:36:20;1.67;;;0.90;;
72132;SDS011;60008;50.826;6.896;2023-07-29T03:39:13;1.60;;;0.90;;
72132;SDS011;60008;50.826;6.896;2023-07-29T03:41:59;1.83;;;1.00;;
72132;SDS011;60008;50.826;6.896;2023-07-29T03:44:50;4.40;;;1.30;;
72132;SDS011;60008;50.826;6.896;2023-07-29T03:47:42;2.70;;;1.20;;
72132;SDS011;60008;50.826;6.896;2023-07-29T03:50:34;2.33;;;1.20;;
72132;SDS011;60008;50.826;6.896;2023-07-29T03:53:20;3.17;;;1.20;;
72132;SDS011;60008;50.826;6.896;2023-07-29T03:56:12;9.13;;;2.00;;
72132;SDS011;60008;50.826;6.896;2023-07-29T03:59:07;3.45;;;1.42;;
72132;SDS011;60008;50.826;6.896;2023-07-29T04:02:05;2.42;;;1.33;;
72132;SDS011;60008;50.826;6.896;2023-07-29T04:05:04;1.98;;;1.05;;
72132;SDS011;60008;50.826;6.896;2023-07-29T04:07:59;2.40;;;1.17;;
72132;SDS011;60008;50.826;6.896;2023-07-29T04:10:44;1.92;;;1.17;;
72132;SDS011;60008;50.826;6.896;2023-07-29T04:13:37;2.03;;;1.00;;
72132;SDS011;60008;50.826;6.896;2023-07-29T04:16:22;2.63;;;1.00;;
72132;SDS011;60008;50.826;6.896;2023-07-29T04:19:14;1.83;;;1.10;;
72132;SDS011;60008;50.826;6.896;2023-07-29T04:22:06;3.20;;;1.10;;
72132;SDS011;60008;50.826;6.896;2023-07-29T04:24:58;1.75;;;0.90;;
72132;SDS011;60008;50.826;6.896;2023-07-29T04:27:44;3.78;;;0.90;;
72132;SDS011;60008;50.826;6.896;2023-07-29T04:30:35;2.53;;;1.10;;
72132;SDS011;60008;50.826;6.896;2023-07-29T04:33:20;4.05;;;1.30;;
72132;SDS011;60008;50.826;6.896;2023-07-29T04:36:12;1.70;;;1.00;;
72132;SDS011;60008;50.826;6.896;2023-07-29T04:39:04;3.13;;;1.00;;
72132;SDS011;60008;50.826;6.896;2023-07-29T04:41:49;2.13;;;1.20;;
72132;SDS011;60008;50.826;6.896;2023-07-29T04:44:41;2.40;;;1.10;;
72132;SDS011;60008;50.826;6.896;2023-07-29T04:47:33;3.67;;;1.00;;
72132;SDS011;60008;50.826;6.896;2023-07-29T04:50:25;3.07;;;1.07;;
72132;SDS011;60008;50.826;6.896;2023-07-29T04:53:11;2.17;;;0.90;;
72132;SDS011;60008;50.826;6.896;2023-07-29T04:56:02;4.20;;;1.10;;
72132;SDS011;60008;50.826;6.896;2023-07-29T04:58:48;3.05;;;1.08;;
72132;SDS011;60008;50.826;6.896;2023-07-29T05:01:46;2.25;;;0.77;;
72132;SDS011;60008;50.826;6.896;2023-07-29T05:04:45;1.73;;;0.70;;
72132;SDS011;60008;50.826;6.896;2023-07-29T05:07:36;2.42;;;0.73;;
72132;SDS011;60008;50.826;6.896;2023-07-29T05:10:21;3.13;;;1.17;;
72132;SDS011;60008;50.826;6.896;2023-07-29T05:13:13;2.42;;;1.17;;
72132;SDS011;60008;50.826;6.896;2023-07-29T05:15:58;1.55;;;0.90;;
72132;SDS011;60008;50.826;6.896;2023-07-29T05:18:50;3.20;;;1.03;;
72132;SDS011;60008;50.826;6.896;2023-07-29T05:21:36;2.50;;;1.05;;
72132;SDS011;60008;50.826;6.896;2023-07-29T05:24:29;3.15;;;1.10;;
72132;SDS011;60008;50.826;6.896;2023-07-29T05:27:14;1.95;;;1.02;;
72132;SDS011;60008;50.826;6.896;2023-07-29T05:30:07;1.58;;;0.80;;
72132;SDS011;60008;50.826;6.896;2023-07-29T05:32:52;3.63;;;0.97;;
72132;SDS011;60008;50.826;6.896;2023-07-29T05:35:44;3.35;;;1.20;;
72132;SDS011;60008;50.826;6.896;2023-07-29T05:38:32;3.97;;;1.30;;
72132;SDS011;60008;50.826;6.896;2023-07-29T05:41:23;2.53;;;1.10;;
72132;SDS011;60008;50.826;6.896;2023-07-29T05:44:09;5.18;;;1.30;;
72132;SDS011;60008;50.826;6.896;2023-07-29T05:47:00;2.97;;;1.40;;
72132;SDS011;60008;50.826;6.896;2023-07-29T05:49:45;2.60;;;0.90;;
72132;SDS011;60008;50.826;6.896;2023-07-29T05:52:37;2.92;;;0.90;;
72132;SDS011;60008;50.826;6.896;2023-07-29T05:55:23;2.63;;;1.15;;
72132;SDS011;60008;50.826;6.896;2023-07-29T05:58:14;3.55;;;1.50;;
72132;SDS011;60008;50.826;6.896;2023-07-29T06:01:13;2.57;;;1.07;;
72132;SDS011;60008;50.826;6.896;2023-07-29T06:04:12;2.85;;;1.30;;
72132;SDS011;60008;50.826;6.896;2023-07-29T06:07:04;2.88;;;1.08;;
72132;SDS011;60008;50.826;6.896;2023-07-29T06:09:50;2.10;;;1.20;;
72132;SDS011;60008;50.826;6.896;2023-07-29T06:12:43;3.85;;;1.40;;
72132;SDS011;60008;50.826;6.896;2023-07-29T06:15:38;2.70;;;1.40;;
72132;SDS011;60008;50.826;6.896;2023-07-29T06:18:24;5.05;;;1.33;;
72132;SDS011;60008;50.826;6.896;2023-07-29T06:21:16;5.07;;;1.75;;
72132;SDS011;60008;50.826;6.896;2023-07-29T06:24:02;3.40;;;1.50;;
72132;SDS011;60008;50.826;6.896;2023-07-29T06:26:54;4.65;;;1.90;;
72132;SDS011;60008;50.826;6.896;2023-07-29T06:29:39;4.17;;;1.70;;
72132;SDS011;60008;50.826;6.896;2023-07-29T06:32:31;2.72;;;1.60;;
72132;SDS011;60008;50.826;6.896;2023-07-29T06:35:16;2.58;;;1.52;;
72132;SDS011;60008;50.826;6.896;2023-07-29T06:38:08;3.47;;;1.70;;
72132;SDS011;60008;50.826;6.896;2023-07-29T06:40:53;5.10;;;2.00;;
72132;SDS011;60008;50.826;6.896;2023-07-29T06:43:45;4.90;;;2.10;;
72132;SDS011;60008;50.826;6.896;2023-07-29T06:46:37;8.80;;;1.83;;
72132;SDS011;60008;50.826;6.896;2023-07-29T06:49:23;5.35;;;2.13;;
72132;SDS011;60008;50.826;6.896;2023-07-29T06:52:14;4.90;;;2.00;;
72132;SDS011;60008;50.826;6.896;2023-07-29T06:55:00;3.92;;;1.85;;
72132;SDS011;60008;50.826;6.896;2023-07-29T06:57:51;4.27;;;1.60;;
72132;SDS011;60008;50.826;6.896;2023-07-29T07:00:43;2.83;;;1.80;;
72132;SDS011;60008;50.826;6.896;2023-07-29T07:03:41;5.07;;;1.90;;
72132;SDS011;60008;50.826;6.896;2023-07-29T07:06:27;4.20;;;2.00;;
72132;SDS011;60008;50.826;6.896;2023-07-29T07:09:19;8.20;;;2.10;;
72132;SDS011;60008;50.826;6.896;2023-07-29T07:12:11;4.47;;;1.90;;
72132;SDS011;60008;50.826;6.896;2023-07-29T07:15:03;3.78;;;2.20;;
72132;SDS011;60008;50.826;6.896;2023-07-29T07:17:55;7.68;;;2.40;;
72132;SDS011;60008;50.826;6.896;2023-07-29T07:20:48;8.90;;;2.00;;
72132;SDS011;60008;50.826;6.896;2023-07-29T07:23:41;5.90;;;2.20;;
72132;SDS011;60008;50.826;6.896;2023-07-29T07:26:32;6.50;;;1.80;;
72132;SDS011;60008;50.826;6.896;2023-07-29T07:29:24;6.95;;;1.92;;
72132;SDS011;60008;50.826;6.896;2023-07-29T07:32:09;5.60;;;1.80;;
72132;SDS011;60008;50.826;6.896;2023-07-29T07:35:01;4.05;;;1.80;;
72132;SDS011;60008;50.826;6.896;2023-07-29T07:37:53;5.15;;;2.00;;
72132;SDS011;60008;50.826;6.896;2023-07-29T07:40:38;4.33;;;1.70;;
72132;SDS011;60008;50.826;6.896;2023-07-29T07:43:30;4.53;;;1.70;;
72132;SDS011;60008;50.826;6.896;2023-07-29T07:46:22;4.28;;;1.88;;
72132;SDS011;60008;50.826;6.896;2023-07-29T07:49:07;2.85;;;1.50;;
72132;SDS011;60008;50.826;6.896;2023-07-29T07:51:59;3.10;;;1.55;;
72132;SDS011;60008;50.826;6.896;2023-07-29T07:54:45;2.97;;;1.80;;
72132;SDS011;60008;50.826;6.896;2023-07-29T07:57:36;3.00;;;1.50;;
72132;SDS011;60008;50.826;6.896;2023-07-29T08:00:21;2.65;;;1.60;;
72132;SDS011;60008;50.826;6.896;2023-07-29T08:03:13;3.35;;;1.90;;
72132;SDS011;60008;50.826;6.896;2023-07-29T08:06:11;6.43;;;1.83;;
72132;SDS011;60008;50.826;6.896;2023-07-29T08:09:03;3.00;;;1.80;;
72132;SDS011;60008;50.826;6.896;2023-07-29T08:11:55;3.67;;;1.50;;
72132;SDS011;60008;50.826;6.896;2023-07-29T08:14:47;2.50;;;1.42;;
72132;SDS011;60008;50.826;6.896;2023-07-29T08:17:39;3.97;;;1.30;;
72132;SDS011;60008;50.826;6.896;2023-07-29T08:20:24;3.38;;;1.60;;
72132;SDS011;60008;50.826;6.896;2023-07-29T08:23:16;3.00;;;1.53;;
72132;SDS011;60008;50.826;6.896;2023-07-29T08:26:02;2.20;;;1.20;;
72132;SDS011;60008;50.826;6.896;2023-07-29T08:28:56;6.13;;;1.55;;
72132;SDS011;60008;50.826;6.896;2023-07-29T08:31:41;2.92;;;1.00;;
72132;SDS011;60008;50.826;6.896;2023-07-29T08:34:33;1.92;;;1.00;;
72132;SDS011;60008;50.826;6.896;2023-07-29T08:37:25;2.20;;;1.03;;
72132;SDS011;60008;50.826;6.896;2023-07-29T08:40:12;2.50;;;0.80;;
72132;SDS011;60008;50.826;6.896;2023-07-29T08:43:04;1.42;;;0.90;;
72132;SDS011;60008;50.826;6.896;2023-07-29T08:45:58;1.55;;;0.80;;
72132;SDS011;60008;50.826;6.896;2023-07-29T08:48:51;3.88;;;1.15;;
72132;SDS011;60008;50.826;6.896;2023-07-29T08:51:36;1.87;;;1.03;;
72132;SDS011;60008;50.826;6.896;2023-07-29T08:54:29;3.83;;;1.10;;
72132;SDS011;60008;50.826;6.896;2023-07-29T08:57:20;3.58;;;1.10;;
72132;SDS011;60008;50.826;6.896;2023-07-29T09:00:07;3.20;;;1.30;;
72132;SDS011;60008;50.826;6.896;2023-07-29T09:03:02;2.83;;;1.20;;
72132;SDS011;60008;50.826;6.896;2023-07-29T09:06:00;3.50;;;0.80;;
72132;SDS011;60008;50.826;6.896;2023-07-29T09:08:53;1.98;;;0.85;;
72132;SDS011;60008;50.826;6.896;2023-07-29T09:11:47;2.53;;;1.10;;
72132;SDS011;60008;50.826;6.896;2023-07-29T09:14:39;3.45;;;0.88;;
72132;SDS011;60008;50.826;6.896;2023-07-29T09:17:32;4.15;;;1.10;;
72132;SDS011;60008;50.826;6.896;2023-07-29T09:20:23;1.77;;;0.80;;
72132;SDS011;60008;50.826;6.896;2023-07-29T09:23:15;5.90;;;1.08;;
72132;SDS011;60008;50.826;6.896;2023-07-29T09:26:01;1.85;;;0.70;;
72132;SDS011;60008;50.826;6.896;2023-07-29T09:28:57;2.22;;;0.80;;
72132;SDS011;60008;50.826;6.896;2023-07-29T09:31:43;2.30;;;0.90;;
72132;SDS011;60008;50.826;6.896;2023-07-29T09:34:37;1.50;;;0.67;;
72132;SDS011;60008;50.826;6.896;2023-07-29T09:37:26;2.38;;;0.90;;
72132;SDS011;60008;50.826;6.896;2023-07-29T09:40:18;1.70;;;0.88;;
72132;SDS011;60008;50.826;6.896;2023-07-29T09:43:04;1.25;;;0.60;;
72132;SDS011;60008;50.826;6.896;2023-07-29T09:46:01;1.90;;;0.80;;
72132;SDS011;60008;50.826;6.896;2023-07-29T09:48:52;2.63;;;0.77;;
72132;SDS011;60008;50.826;6.896;2023-07-29T09:51:46;1.45;;;0.70;;
72132;SDS011;60008;50.826;6.896;2023-07-29T09:54:31;1.92;;;0.90;;
72132;SDS011;60008;50.826;6.896;2023-07-29T09:57:23;2.05;;;0.60;;
72132;SDS011;60008;50.826;6.896;2023-07-29T10:00:15;3.28;;;0.88;;
72132;SDS011;60008;50.826;6.896;2023-07-29T10:03:01;2.20;;;0.80;;
72132;SDS011;60008;50.826;6.896;2023-07-29T10:06:03;3.50;;;0.85;;
72132;SDS011;60008;50.826;6.896;2023-07-29T10:08:49;1.52;;;0.80;;
72132;SDS011;60008;50.826;6.896;2023-07-29T10:11:41;5.50;;;0.93;;
72132;SDS011;60008;50.826;6.896;2023-07-29T10:14:27;2.25;;;1.20;;
72132;SDS011;60008;50.826;6.896;2023-07-29T10:17:19;3.53;;;1.00;;
72132;SDS011;60008;50.826;6.896;2023-07-29T10:20:07;2.03;;;1.00;;
72132;SDS011;60008;50.826;6.896;2023-07-29T10:23:00;2.30;;;1.20;;
72132;SDS011;60008;50.826;6.896;2023-07-29T10:26:02;1.90;;;1.08;;
72132;SDS011;60008;50.826;6.896;2023-07-29T10:28:49;1.83;;;0.90;;
72132;SDS011;60008;50.826;6.896;2023-07-29T10:31:44;3.03;;;0.70;;
72132;SDS011;60008;50.826;6.896;2023-07-29T10:34:37;4.55;;;1.10;;
72132;SDS011;60008;50.826;6.896;2023-07-29T10:37:23;2.63;;;1.05;;
72132;SDS011;60008;50.826;6.896;2023-07-29T10:40:15;4.05;;;0.88;;
72132;SDS011;60008;50.826;6.896;2023-07-29T10:43:10;1.92;;;0.80;;
72132;SDS011;60008;50.826;6.896;2023-07-29T10:46:20;6.30;;;1.10;;
72132;SDS011;60008;50.826;6.896;2023-07-29T10:49:12;3.08;;;1.00;;
72132;SDS011;60008;50.826;6.896;2023-07-29T10:51:57;1.80;;;1.00;;
72132;SDS011;60008;50.826;6.896;2023-07-29T10:54:48;2.20;;;1.00;;
72132;SDS011;60008;50.826;6.896;2023-07-29T10:57:34;3.13;;;1.50;;
72132;SDS011;60008;50.826;6.896;2023-07-29T11:00:30;3.00;;;1.10;;
72132;SDS011;60008;50.826;6.896;2023-07-29T11:03:28;2.30;;;1.15;;
72132;SDS011;60008;50.826;6.896;2023-07-29T11:06:14;2.33;;;1.10;;
72132;SDS011;60008;50.826;6.896;2023-07-29T11:09:38;4.07;;;0.93;;
72132;SDS011;60008;50.826;6.896;2023-07-29T11:15:29;4.23;;;1.00;;
72132;SDS011;60008;50.826;6.896;2023-07-29T11:18:21;2.67;;;1.20;;
72132;SDS011;60008;50.826;6.896;2023-07-29T11:21:06;5.05;;;1.15;;
72132;SDS011;60008;50.826;6.896;2023-07-29T11:23:58;2.53;;;1.00;;
72132;SDS011;60008;50.826;6.896;2023-07-29T11:26:50;2.83;;;0.90;;
72132;SDS011;60008;50.826;6.896;2023-07-29T11:29:35;4.50;;;1.17;;
72132;SDS011;60008;50.826;6.896;2023-07-29T11:32:26;1.60;;;0.77;;
72132;SDS011;60008;50.826;6.896;2023-07-29T11:35:18;2.50;;;1.30;;
72132;SDS011;60008;50.826;6.896;2023-07-29T11:38:14;2.28;;;1.13;;
72132;SDS011;60008;50.826;6.896;2023-07-29T11:41:00;3.05;;;1.20;;
72132;SDS011;60008;50.826;6.896;2023-07-29T11:43:54;3.37;;;1.10;;
72132;SDS011;60008;50.826;6.896;2023-07-29T11:46:39;2.72;;;1.17;;
72132;SDS011;60008;50.826;6.896;2023-07-29T11:49:32;2.55;;;1.13;;
72132;SDS011;60008;50.826;6.896;2023-07-29T11:52:18;2.78;;;1.13;;
72132;SDS011;60008;50.826;6.896;2023-07-29T11:55:11;2.15;;;1.27;;
72132;SDS011;60008;50.826;6.896;2023-07-29T11:58:03;2.30;;;1.00;;
72132;SDS011;60008;50.826;6.896;2023-07-29T12:00:48;3.25;;;1.10;;
72132;SDS011;60008;50.826;6.896;2023-07-29T12:03:40;3.10;;;1.15;;
72132;SDS011;60008;50.826;6.896;2023-07-29T12:06:34;1.65;;;0.95;;
72132;SDS011;60008;50.826;6.896;2023-07-29T12:09:27;2.58;;;1.10;;
72132;SDS011;60008;50.826;6.896;2023-07-29T12:12:12;2.20;;;1.10;;
72132;SDS011;60008;50.826;6.896;2023-07-29T12:15:04;2.40;;;1.00;;
72132;SDS011;60008;50.826;6.896;2023-07-29T12:17:52;1.90;;;1.00;;
72132;SDS011;60008;50.826;6.896;2023-07-29T12:20:47;3.75;;;1.10;;
72132;SDS011;60008;50.826;6.896;2023-07-29T12:23:32;2.25;;;1.10;;
72132;SDS011;60008;50.826;6.896;2023-07-29T12:26:27;2.40;;;1.00;;
72132;SDS011;60008;50.826;6.896;2023-07-29T12:29:17;3.67;;;1.08;;
72132;SDS011;60008;50.826;6.896;2023-07-29T12:32:12;2.88;;;1.50;;
72132;SDS011;60008;50.826;6.896;2023-07-29T12:35:20;2.95;;;1.30;;
72132;SDS011;60008;50.826;6.896;2023-07-29T12:38:12;2.83;;;1.00;;
72132;SDS011;60008;50.826;6.896;2023-07-29T12:41:19;2.07;;;0.80;;
72132;SDS011;60008;50.826;6.896;2023-07-29T12:44:11;2.40;;;0.80;;
72132;SDS011;60008;50.826;6.896;2023-07-29T12:47:04;2.13;;;0.90;;
72132;SDS011;60008;50.826;6.896;2023-07-29T12:49:50;1.80;;;0.80;;
72132;SDS011;60008;50.826;6.896;2023-07-29T12:52:42;2.97;;;0.80;;
72132;SDS011;60008;50.826;6.896;2023-07-29T12:55:34;2.40;;;1.07;;
72132;SDS011;60008;50.826;6.896;2023-07-29T12:58:19;4.00;;;1.20;;
72132;SDS011;60008;50.826;6.896;2023-07-29T13:01:11;2.00;;;0.88;;
72132;SDS011;60008;50.826;6.896;2023-07-29T13:04:03;1.73;;;1.00;;
72132;SDS011;60008;50.826;6.896;2023-07-29T13:06:55;2.10;;;1.00;;
72132;SDS011;60008;50.826;6.896;2023-07-29T13:09:41;2.70;;;1.00;;
72132;SDS011;60008;50.826;6.896;2023-07-29T13:12:32;2.13;;;0.95;;
72132;SDS011;60008;50.826;6.896;2023-07-29T13:15:17;2.35;;;1.10;;
72132;SDS011;60008;50.826;6.896;2023-07-29T13:18:09;1.80;;;0.90;;
72132;SDS011;60008;50.826;6.896;2023-07-29T13:20:54;2.20;;;0.90;;
72132;SDS011;60008;50.826;6.896;2023-07-29T13:23:47;2.30;;;0.80;;
72132;SDS011;60008;50.826;6.896;2023-07-29T13:26:38;1.65;;;0.80;;
72132;SDS011;60008;50.826;6.896;2023-07-29T13:29:23;1.70;;;0.90;;
72132;SDS011;60008;50.826;6.896;2023-07-29T13:32:15;2.45;;;1.20;;
72132;SDS011;60008;50.826;6.896;2023-07-29T13:35:01;6.65;;;1.00;;
72132;SDS011;60008;50.826;6.896;2023-07-29T13:37:52;1.80;;;0.80;;
72132;SDS011;60008;50.826;6.896;2023-07-29T13:40:45;2.42;;;0.93;;
72132;SDS011;60008;50.826;6.896;2023-07-29T13:43:36;5.68;;;1.27;;
72132;SDS011;60008;50.826;6.896;2023-07-29T13:46:28;3.60;;;1.45;;
72132;SDS011;60008;50.826;6.896;2023-07-29T13:49:13;4.22;;;1.25;;
72132;SDS011;60008;50.826;6.896;2023-07-29T13:52:05;6.47;;;1.23;;
72132;SDS011;60008;50.826;6.896;2023-07-29T13:54:50;4.63;;;1.40;;
72132;SDS011;60008;50.826;6.896;2023-07-29T13:57:42;2.25;;;1.13;;
72132;SDS011;60008;50.826;6.896;2023-07-29T14:00:28;6.78;;;1.30;;
72132;SDS011;60008;50.826;6.896;2023-07-29T14:03:25;3.17;;;1.48;;
72132;SDS011;60008;50.826;6.896;2023-07-29T14:06:24;3.03;;;1.30;;
72132;SDS011;60008;50.826;6.896;2023-07-29T14:09:30;6.72;;;3.30;;
72132;SDS011;60008;50.826;6.896;2023-07-29T14:12:15;3.60;;;1.88;;
72132;SDS011;60008;50.826;6.896;2023-07-29T14:15:07;4.78;;;2.17;;
72132;SDS011;60008;50.826;6.896;2023-07-29T14:17:59;4.22;;;1.85;;
72132;SDS011;60008;50.826;6.896;2023-07-29T14:20:51;4.83;;;2.80;;
72132;SDS011;60008;50.826;6.896;2023-07-29T14:23:36;2.63;;;1.60;;
72132;SDS011;60008;50.826;6.896;2023-07-29T14:26:28;2.63;;;1.50;;
72132;SDS011;60008;50.826;6.896;2023-07-29T14:29:14;2.45;;;1.52;;
72132;SDS011;60008;50.826;6.896;2023-07-29T14:32:06;3.85;;;1.90;;
72132;SDS011;60008;50.826;6.896;2023-07-29T14:34:51;3.20;;;1.53;;
72132;SDS011;60008;50.826;6.896;2023-07-29T14:37:43;4.05;;;1.70;;
72132;SDS011;60008;50.826;6.896;2023-07-29T14:40:28;3.10;;;2.00;;
72132;SDS011;60008;50.826;6.896;2023-07-29T14:43:20;4.28;;;2.38;;
72132;SDS011;60008;50.826;6.896;2023-07-29T14:46:11;6.70;;;2.97;;
72132;SDS011;60008;50.826;6.896;2023-07-29T14:49:03;6.50;;;3.10;;
72132;SDS011;60008;50.826;6.896;2023-07-29T14:51:49;3.42;;;1.80;;
72132;SDS011;60008;50.826;6.896;2023-07-29T14:54:40;4.07;;;2.17;;
72132;SDS011;60008;50.826;6.896;2023-07-29T14:57:32;3.95;;;1.70;;
72132;SDS011;60008;50.826;6.896;2023-07-29T15:00:17;3.85;;;1.80;;
72132;SDS011;60008;50.826;6.896;2023-07-29T15:03:15;3.80;;;1.67;;
72132;SDS011;60008;50.826;6.896;2023-07-29T15:06:08;2.88;;;1.52;;
72132;SDS011;60008;50.826;6.896;2023-07-29T15:08:59;2.13;;;1.33;;
72132;SDS011;60008;50.826;6.896;2023-07-29T15:11:52;3.08;;;1.60;;
72132;SDS011;60008;50.826;6.896;2023-07-29T15:14:43;4.07;;;1.52;;
72132;SDS011;60008;50.826;6.896;2023-07-29T15:17:28;2.77;;;1.50;;
72132;SDS011;60008;50.826;6.896;2023-07-29T15:20:20;2.42;;;1.27;;
72132;SDS011;60008;50.826;6.896;2023-07-29T15:23:06;6.10;;;1.63;;
72132;SDS011;60008;50.826;6.896;2023-07-29T15:25:58;2.80;;;1.60;;
72132;SDS011;60008;50.826;6.896;2023-07-29T15:28:49;7.32;;;1.90;;
72132;SDS011;60008;50.826;6.896;2023-07-29T15:31:35;3.47;;;1.70;;
72132;SDS011;60008;50.826;6.896;2023-07-29T15:34:27;2.55;;;1.40;;
72132;SDS011;60008;50.826;6.896;2023-07-29T15:37:16;2.28;;;1.38;;
72132;SDS011;60008;50.826;6.896;2023-07-29T15:40:07;2.35;;;1.30;;
72132;SDS011;60008;50.826;6.896;2023-07-29T15:42:53;1.88;;;1.10;;
72132;SDS011;60008;50.826;6.896;2023-07-29T15:45:45;2.80;;;1.27;;
72132;SDS011;60008;50.826;6.896;2023-07-29T15:48:31;3.50;;;1.48;;
72132;SDS011;60008;50.826;6.896;2023-07-29T15:51:22;3.30;;;1.73;;
72132;SDS011;60008;50.826;6.896;2023-07-29T15:54:14;2.80;;;1.40;;
72132;SDS011;60008;50.826;6.896;2023-07-29T15:57:06;4.03;;;1.60;;
72132;SDS011;60008;50.826;6.896;2023-07-29T15:59:58;5.23;;;1.50;;
72132;SDS011;60008;50.826;6.896;2023-07-29T16:02:44;2.95;;;1.38;;
72132;SDS011;60008;50.826;6.896;2023-07-29T16:05:42;2.75;;;1.55;;
72132;SDS011;60008;50.826;6.896;2023-07-29T16:08:31;6.07;;;1.50;;
72132;SDS011;60008;50.826;6.896;2023-07-29T16:11:22;4.38;;;1.50;;
72132;SDS011;60008;50.826;6.896;2023-07-29T16:14:13;4.03;;;1.90;;
72132;SDS011;60008;50.826;6.896;2023-07-29T16:16:59;5.60;;;1.83;;
72132;SDS011;60008;50.826;6.896;2023-07-29T16:19:53;3.00;;;1.85;;
72132;SDS011;60008;50.826;6.896;2023-07-29T16:22:47;3.22;;;2.00;;
72132;SDS011;60008;50.826;6.896;2023-07-29T16:25:39;3.60;;;1.75;;
72132;SDS011;60008;50.826;6.896;2023-07-29T16:28:30;4.30;;;1.40;;
72132;SDS011;60008;50.826;6.896;2023-07-29T16:31:15;2.78;;;1.60;;
72132;SDS011;60008;50.826;6.896;2023-07-29T16:34:09;3.58;;;2.00;;
72132;SDS011;60008;50.826;6.896;2023-07-29T16:37:02;3.88;;;1.83;;
72132;SDS011;60008;50.826;6.896;2023-07-29T16:39:46;3.15;;;1.73;;
72132;SDS011;60008;50.826;6.896;2023-07-29T16:42:38;5.27;;;1.70;;
72132;SDS011;60008;50.826;6.896;2023-07-29T16:45:24;3.63;;;1.63;;
72132;SDS011;60008;50.826;6.896;2023-07-29T16:48:16;3.10;;;1.50;;
72132;SDS011;60008;50.826;6.896;2023-07-29T16:51:04;2.60;;;1.50;;
72132;SDS011;60008;50.826;6.896;2023-07-29T16:53:56;2.38;;;1.35;;
72132;SDS011;60008;50.826;6.896;2023-07-29T16:56:41;2.57;;;1.30;;
72132;SDS011;60008;50.826;6.896;2023-07-29T16:59:33;2.60;;;1.40;;
72132;SDS011;60008;50.826;6.896;2023-07-29T17:02:19;6.53;;;2.25;;
72132;SDS011;60008;50.826;6.896;2023-07-29T17:05:10;3.65;;;1.90;;
72132;SDS011;60008;50.826;6.896;2023-07-29T17:08:09;2.60;;;1.58;;
72132;SDS011;60008;50.826;6.896;2023-07-29T17:10:55;3.73;;;1.50;;
72132;SDS011;60008;50.826;6.896;2023-07-29T17:13:46;3.17;;;1.60;;
72132;SDS011;60008;50.826;6.896;2023-07-29T17:16:31;4.20;;;1.80;;